Terminal Aerodrome Forecast
Issued by NWS Louisville, KY

Home | Current Version | Previous Version | Text Only | Print | Product List | Glossary On
Versions: 1 2 3 4 5 6 7 8 9 10 11 12 13 14 15 16 17 18 19 20 21 22 23 24 25
000
FTUS43 KLMK 181610 AAB
TAFLEX
TAF AMD
KLEX 181610Z 1816/1912 27006KT P6SM FEW008 OVC013
     FM182200 VRB04KT P6SM FEW022 BKN250
      TEMPO 1822/1824 BKN022=

USA.gov is the U.S. government's official web portal to all federal, state and local government web resources and services.